Time;durP1;ratioP1;P1;durP2;ratioP2;P2;SDS_P1;SDS_P2;PMS_P1;PMS_P2;Temp;Humidity;BMP_temperature;BMP_pressure;BME280_temperature;BME280_humidity;BME280_pressure;Samples;Min_cycle;Max_cycle;Signal;HPM_P1;HPM_P2
2021/04/05 00:01:07;;;;;;;25.75;14.68;;;6.10;94.60;;;;;;5064246;28;20024;-36
2021/04/05 00:03:32;;;;;;;26.55;15.23;;;6.10;94.80;;;;;;5064876;28;20032;-37
2021/04/05 00:05:58;;;;;;;27.80;15.20;;;6.10;94.70;;;;;;5064078;28;20009;-37
2021/04/05 00:08:23;;;;;;;22.90;14.98;;;6.10;94.80;;;;;;5064459;28;20035;-37
2021/04/05 00:10:53;;;;;;;25.42;16.00;;;6.00;94.80;;;;;;5063548;28;20395;-35
2021/04/05 00:13:32;;;;;;;27.95;16.05;;;6.00;94.90;;;;;;5064483;28;20219;-35
2021/04/05 00:15:57;;;;;;;25.48;15.50;;;6.00;94.90;;;;;;5064019;28;20028;-37
2021/04/05 00:18:25;;;;;;;23.13;14.80;;;6.00;94.90;;;;;;5064457;28;20036;-36
2021/04/05 00:21:06;;;;;;;29.63;15.85;;;6.00;95.00;;;;;;5064133;28;20078;-37
2021/04/05 00:23:32;;;;;;;27.48;16.10;;;6.00;95.10;;;;;;5044230;28;20041;-37
2021/04/05 00:25:58;;;;;;;29.08;16.88;;;6.00;95.00;;;;;;5058533;28;20024;-35
2021/04/05 00:28:24;;;;;;;26.90;16.42;;;6.00;95.20;;;;;;5064322;28;20017;-38
2021/04/05 00:30:53;;;;;;;26.23;17.08;;;6.00;95.20;;;;;;5063841;28;20028;-37
2021/04/05 00:33:20;;;;;;;27.60;16.25;;;6.00;95.30;;;;;;5063608;28;20456;-36
2021/04/05 00:35:46;;;;;;;25.20;16.65;;;6.00;95.20;;;;;;5063869;28;20021;-36
2021/04/05 00:38:13;;;;;;;25.08;15.73;;;6.00;95.30;;;;;;5064470;28;20417;-36
2021/04/05 00:40:44;;;;;;;33.08;16.42;;;6.00;95.20;;;;;;5063156;28;20468;-37
2021/04/05 00:43:11;;;;;;;31.05;16.55;;;6.00;95.20;;;;;;5063376;28;20491;-37
2021/04/05 00:45:37;;;;;;;26.70;16.48;;;6.00;95.20;;;;;;5064181;28;20070;-36
2021/04/05 00:48:04;;;;;;;32.22;17.10;;;6.00;95.10;;;;;;5063523;28;20025;-38
2021/04/05 00:50:32;;;;;;;26.65;16.10;;;6.10;95.20;;;;;;5063831;28;20032;-38
2021/04/05 00:53:00;;;;;;;26.40;16.58;;;6.10;95.20;;;;;;5063119;28;20032;-39
2021/04/05 00:55:26;;;;;;;29.75;17.42;;;6.10;95.20;;;;;;5063608;28;20050;-37
2021/04/05 00:57:54;;;;;;;27.75;16.77;;;6.10;95.50;;;;;;5064014;28;20036;-35
2021/04/05 01:00:41;;;;;;;34.50;19.92;;;6.10;95.30;;;;;;5063310;28;20025;-39
2021/04/05 01:03:18;;;;;;;31.00;17.30;;;6.10;95.40;;;;;;5063410;28;20055;-39
2021/04/05 01:05:50;;;;;;;31.15;18.40;;;6.10;95.30;;;;;;5063500;28;20029;-38
2021/04/05 01:08:16;;;;;;;37.72;19.50;;;6.10;95.40;;;;;;5059949;28;20484;-36
2021/04/05 01:10:43;;;;;;;31.50;18.45;;;6.10;95.50;;;;;;5063724;28;20406;-38
2021/04/05 01:13:09;;;;;;;34.92;18.52;;;6.10;95.60;;;;;;5063470;28;20371;-39
2021/04/05 01:15:35;;;;;;;32.72;18.25;;;6.10;95.60;;;;;;5063422;28;20025;-38
2021/04/05 01:18:00;;;;;;;26.92;17.52;;;6.10;95.60;;;;;;5063240;28;20131;-39
2021/04/05 01:20:27;;;;;;;29.40;17.80;;;6.10;95.50;;;;;;5063508;28;20020;-38
2021/04/05 01:22:54;;;;;;;25.83;17.55;;;6.10;95.50;;;;;;5063282;28;20055;-38
2021/04/05 01:25:21;;;;;;;30.63;17.52;;;6.20;95.50;;;;;;5063316;28;20472;-38
2021/04/05 01:27:47;;;;;;;30.80;18.45;;;6.10;95.50;;;;;;5063376;28;20120;-39
2021/04/05 01:30:13;;;;;;;36.05;18.73;;;6.20;95.50;;;;;;5063302;28;20048;-37
2021/04/05 01:32:38;;;;;;;33.03;19.52;;;6.20;95.60;;;;;;5062892;28;20050;-37
2021/04/05 01:35:07;;;;;;;30.13;17.80;;;6.20;95.60;;;;;;5063377;28;20075;-36
2021/04/05 01:37:32;;;;;;;30.95;17.90;;;6.30;95.50;;;;;;5063084;28;20498;-38
2021/04/05 01:39:58;;;;;;;34.15;19.25;;;6.30;95.50;;;;;;5063320;28;20083;-38
2021/04/05 01:42:23;;;;;;;29.33;18.40;;;6.40;95.40;;;;;;5062708;28;20119;-38
2021/04/05 01:44:49;;;;;;;32.22;18.85;;;6.50;95.50;;;;;;5063374;28;20063;-37
2021/04/05 01:47:15;;;;;;;31.10;17.73;;;6.50;95.30;;;;;;5063464;28;20120;-38
2021/04/05 01:49:40;;;;;;;33.50;18.33;;;6.60;95.30;;;;;;5062567;28;20046;-37
2021/04/05 01:52:13;;;;;;;33.80;18.10;;;6.60;95.30;;;;;;5063367;28;20522;-35
2021/04/05 01:54:39;;;;;;;32.35;18.20;;;6.70;95.40;;;;;;5065210;28;20401;-39
2021/04/05 01:57:09;;;;;;;26.60;16.75;;;6.70;95.40;;;;;;5066548;28;20020;-39
2021/04/05 01:59:36;;;;;;;29.83;17.15;;;6.70;95.30;;;;;;5065187;28;20372;-38
2021/04/05 02:02:01;;;;;;;29.45;17.15;;;6.80;95.30;;;;;;5054923;28;20040;-38
2021/04/05 02:04:27;;;;;;;39.03;17.95;;;6.80;95.30;;;;;;5062311;28;20051;-38
2021/04/05 02:06:53;;;;;;;31.55;17.85;;;6.80;95.30;;;;;;5066764;28;20433;-37
2021/04/05 02:09:19;;;;;;;24.30;16.83;;;6.80;95.40;;;;;;5066665;28;20048;-37
2021/04/05 02:11:44;;;;;;;30.17;16.92;;;6.90;95.40;;;;;;5066015;28;20067;-38
2021/04/05 02:14:10;;;;;;;30.73;18.15;;;6.90;95.30;;;;;;5066311;28;20640;-36
2021/04/05 02:16:36;;;;;;;35.28;16.92;;;6.90;95.30;;;;;;5066410;28;20510;-38
2021/04/05 02:19:05;;;;;;;31.58;17.23;;;7.00;95.50;;;;;;5065859;28;20021;-38
2021/04/05 02:21:34;;;;;;;30.45;17.30;;;7.00;95.60;;;;;;5066648;28;20037;-38
2021/04/05 02:24:05;;;;;;;29.63;16.70;;;7.00;95.50;;;;;;5065915;28;20151;-37
2021/04/05 02:26:33;;;;;;;30.83;16.70;;;7.10;95.50;;;;;;5065749;28;20784;-34
2021/04/05 02:29:01;;;;;;;35.15;18.92;;;7.10;95.80;;;;;;5066268;28;20475;-35
2021/04/05 02:31:29;;;;;;;31.95;17.05;;;7.10;95.90;;;;;;5065832;28;20029;-38
2021/04/05 02:33:57;;;;;;;37.15;17.13;;;7.10;95.90;;;;;;5065790;28;20037;-39
2021/04/05 02:36:28;;;;;;;36.28;18.08;;;7.10;96.00;;;;;;5066683;28;20027;-38
2021/04/05 02:38:56;;;;;;;31.35;16.50;;;7.10;96.10;;;;;;5065564;28;20141;-36
2021/04/05 02:41:24;;;;;;;33.53;17.23;;;7.10;95.90;;;;;;5066164;28;20044;-39
2021/04/05 02:43:52;;;;;;;33.47;16.23;;;7.10;96.00;;;;;;5065516;28;20354;-38
2021/04/05 02:46:21;;;;;;;32.70;17.10;;;7.10;96.00;;;;;;5065684;28;20848;-36
2021/04/05 02:48:48;;;;;;;30.67;17.08;;;7.10;96.30;;;;;;5065996;28;20024;-37
2021/04/05 02:51:14;;;;;;;38.45;16.73;;;7.10;96.30;;;;;;5065864;28;20028;-36
2021/04/05 02:53:46;;;;;;;35.08;19.27;;;7.10;96.40;;;;;;5065788;28;20031;-39
2021/04/05 02:56:13;;;;;;;35.92;17.98;;;7.20;96.50;;;;;;5065618;28;20765;-35
2021/04/05 02:58:43;;;;;;;32.70;17.40;;;7.20;96.50;;;;;;5065593;28;20468;-35
2021/04/05 03:01:10;;;;;;;32.53;17.58;;;7.30;96.60;;;;;;5065029;28;20455;-39
2021/04/05 03:03:40;;;;;;;35.13;18.42;;;7.30;96.50;;;;;;5065514;28;20033;-38
2021/04/05 03:06:07;;;;;;;32.78;17.73;;;7.30;96.50;;;;;;5064898;28;20059;-43
2021/04/05 03:08:33;;;;;;;35.03;19.45;;;7.30;96.70;;;;;;5065218;28;20074;-35
2021/04/05 03:10:59;;;;;;;30.63;16.35;;;7.40;96.80;;;;;;5065043;28;20044;-40
2021/04/05 03:13:30;;;;;;;30.95;17.17;;;7.40;96.70;;;;;;5065845;28;20036;-38
2021/04/05 03:15:56;;;;;;;30.92;15.50;;;7.40;96.70;;;;;;5064806;28;20038;-38
2021/04/05 03:18:22;;;;;;;34.65;16.88;;;7.50;96.50;;;;;;5065660;28;20348;-36
2021/04/05 03:20:49;;;;;;;27.80;15.30;;;7.50;96.60;;;;;;5064774;28;20081;-38
2021/04/05 03:23:15;;;;;;;30.85;16.10;;;7.50;96.50;;;;;;5065493;28;20035;-36
2021/04/05 03:25:42;;;;;;;32.90;16.52;;;7.50;96.60;;;;;;5064924;28;20574;-43
2021/04/05 03:28:08;;;;;;;33.33;16.23;;;7.60;96.60;;;;;;5065114;28;20051;-37
2021/04/05 03:30:48;;;;;;;32.85;15.55;;;7.60;96.60;;;;;;5064940;28;20429;-37
2021/04/05 03:33:23;;;;;;;30.67;15.32;;;7.60;96.40;;;;;;5063065;28;20048;-36
2021/04/05 03:35:55;;;;;;;30.50;15.25;;;7.70;96.40;;;;;;5064270;28;20493;-38
2021/04/05 03:38:21;;;;;;;31.83;16.25;;;7.70;96.50;;;;;;5065403;28;20471;-35
2021/04/05 03:40:47;;;;;;;32.63;16.73;;;7.70;96.50;;;;;;5065186;28;20020;-37
2021/04/05 03:43:28;;;;;;;32.20;15.68;;;7.70;96.70;;;;;;5064134;28;20217;-38
2021/04/05 03:46:05;;;;;;;35.15;16.20;;;7.60;96.70;;;;;;5065118;28;20461;-38
2021/04/05 03:48:35;;;;;;;32.97;15.75;;;7.60;96.70;;;;;;5063297;28;20107;-36
2021/04/05 03:51:11;;;;;;;30.02;15.00;;;7.60;96.70;;;;;;5064791;28;20107;-36
2021/04/05 03:53:39;;;;;;;29.35;16.50;;;7.70;96.70;;;;;;5064223;28;20025;-35
2021/04/05 03:56:17;;;;;;;31.67;17.33;;;7.70;96.90;;;;;;5064554;28;20082;-38
2021/04/05 03:58:50;;;;;;;37.35;16.45;;;7.70;96.80;;;;;;5064276;28;20447;-38
2021/04/05 04:01:27;;;;;;;32.65;15.80;;;7.70;96.70;;;;;;5065036;28;20040;-39
2021/04/05 04:04:03;;;;;;;35.10;16.38;;;7.70;96.70;;;;;;5063973;28;20063;-38
2021/04/05 04:06:49;;;;;;;33.92;16.33;;;7.70;96.80;;;;;;5065001;28;20020;-38
2021/04/05 04:09:17;;;;;;;36.08;16.85;;;7.70;96.80;;;;;;5064108;28;20148;-38
2021/04/05 04:11:47;;;;;;;30.90;17.83;;;7.70;96.80;;;;;;5064872;28;20058;-38
2021/04/05 04:14:15;;;;;;;33.65;16.75;;;7.70;96.90;;;;;;5064256;28;20034;-37
2021/04/05 04:16:41;;;;;;;36.22;18.05;;;7.70;96.80;;;;;;5064233;28;20039;-39
2021/04/05 04:19:08;;;;;;;34.55;15.90;;;7.70;96.80;;;;;;5063717;28;20028;-38
2021/04/05 04:21:37;;;;;;;30.20;16.05;;;7.80;96.80;;;;;;5063893;28;20116;-39
2021/04/05 04:24:03;;;;;;;31.48;16.65;;;7.70;96.80;;;;;;5063669;28;20699;-37
2021/04/05 04:26:35;;;;;;;28.83;15.48;;;7.80;96.90;;;;;;5064657;28;20157;-39
2021/04/05 04:29:01;;;;;;;27.90;15.17;;;7.80;96.80;;;;;;5064191;28;20031;-36
2021/04/05 04:31:27;;;;;;;28.15;15.15;;;7.80;96.80;;;;;;5064141;28;20038;-35
2021/04/05 04:33:53;;;;;;;30.02;15.60;;;7.80;96.80;;;;;;5064177;28;20016;-38
2021/04/05 04:36:23;;;;;;;28.83;15.48;;;7.80;96.70;;;;;;5064886;28;20024;-38
2021/04/05 04:38:54;;;;;;;25.98;13.75;;;7.90;96.70;;;;;;5063896;28;20020;-37
2021/04/05 04:41:28;;;;;;;27.42;14.38;;;7.90;96.60;;;;;;5064583;28;20017;-40
2021/04/05 04:43:59;;;;;;;27.50;13.57;;;7.90;96.60;;;;;;5064183;28;20055;-36
2021/04/05 04:46:28;;;;;;;27.02;14.40;;;7.90;96.50;;;;;;5063410;28;20066;-37
2021/04/05 04:49:03;;;;;;;22.92;13.13;;;8.00;96.60;;;;;;5064147;28;20025;-38
2021/04/05 04:51:29;;;;;;;23.58;13.32;;;8.00;96.60;;;;;;5064286;28;20428;-43
2021/04/05 04:53:59;;;;;;;27.48;13.75;;;8.00;96.70;;;;;;5063070;28;20021;-38
2021/04/05 04:56:26;;;;;;;22.83;13.05;;;7.90;96.70;;;;;;5053722;28;20119;-36
2021/04/05 04:58:57;;;;;;;24.10;12.73;;;8.00;96.70;;;;;;5064257;28;20024;-38
2021/04/05 05:01:24;;;;;;;21.15;11.20;;;8.00;96.70;;;;;;5063960;28;20028;-36
2021/04/05 05:03:57;;;;;;;20.02;11.85;;;8.00;96.70;;;;;;5064051;28;20025;-42
2021/04/05 05:06:24;;;;;;;18.35;10.77;;;8.00;96.60;;;;;;5064086;28;20029;-40
2021/04/05 05:08:50;;;;;;;25.55;10.95;;;8.00;96.60;;;;;;5064003;28;20031;-41
2021/04/05 05:11:16;;;;;;;23.52;11.55;;;8.10;96.50;;;;;;5062767;28;20060;-33
2021/04/05 05:13:42;;;;;;;21.73;10.52;;;8.10;96.50;;;;;;5063503;28;20016;-38
2021/04/05 05:16:09;;;;;;;18.63;10.32;;;8.10;96.30;;;;;;5063610;28;20396;-37
2021/04/05 05:18:39;;;;;;;18.10;10.02;;;8.20;96.30;;;;;;5064349;28;20047;-38
2021/04/05 05:21:15;;;;;;;18.20;10.65;;;8.20;96.20;;;;;;5063297;28;20353;-38
2021/04/05 05:23:42;;;;;;;19.98;10.13;;;8.30;96.00;;;;;;5044099;28;20045;-38
2021/04/05 05:26:11;;;;;;;16.65;10.15;;;8.30;95.90;;;;;;5058749;28;20061;-37
2021/04/05 05:28:41;;;;;;;18.63;9.18;;;8.30;95.80;;;;;;5064194;28;20059;-36
2021/04/05 05:31:07;;;;;;;18.35;10.05;;;8.40;96.00;;;;;;5067985;28;20020;-38
2021/04/05 05:33:35;;;;;;;16.73;8.98;;;8.40;95.70;;;;;;5067792;28;20021;-37
2021/04/05 05:36:01;;;;;;;21.23;10.40;;;8.50;95.50;;;;;;5067097;28;20100;-34
2021/04/05 05:38:26;;;;;;;19.55;9.32;;;8.50;95.40;;;;;;5067441;28;20121;-39
2021/04/05 05:41:05;;;;;;;20.30;9.70;;;8.50;95.30;;;;;;5067061;28;20027;-37
2021/04/05 05:43:55;;;;;;;12.88;6.10;;;8.60;95.30;;;;;;5067467;28;20086;-36
2021/04/05 05:46:44;;;;;;;6.03;3.17;;;8.50;95.30;;;;;;5067114;28;20033;-38
2021/04/05 05:49:20;;;;;;;4.47;1.90;;;8.20;94.70;;;;;;5067107;28;20172;-38
2021/04/05 05:52:13;;;;;;;4.45;1.75;;;7.70;95.20;;;;;;5067472;28;20040;-38
2021/04/05 05:54:59;;;;;;;3.92;2.03;;;7.20;96.60;;;;;;5047527;28;20101;-35
2021/04/05 05:57:37;;;;;;;5.65;1.92;;;6.80;97.00;;;;;;5064172;28;20036;-35
2021/04/05 06:00:23;;;;;;;4.53;1.73;;;6.60;97.60;;;;;;5067258;28;20093;-34
2021/04/05 06:03:17;;;;;;;6.03;1.52;;;6.40;98.00;;;;;;5066688;28;20033;-37
2021/04/05 06:06:07;;;;;;;4.38;1.63;;;6.30;98.50;;;;;;5066888;28;20025;-35
2021/04/05 06:08:51;;;;;;;5.25;1.60;;;6.20;98.50;;;;;;5067753;28;20036;-38
2021/04/05 06:11:35;;;;;;;7.47;1.95;;;6.10;98.70;;;;;;5066660;28;20087;-37
2021/04/05 06:14:11;;;;;;;6.82;2.10;;;6.00;98.80;;;;;;5056530;28;20024;-38
2021/04/05 06:16:51;;;;;;;6.78;2.17;;;6.00;98.80;;;;;;5066660;28;20056;-38
2021/04/05 06:19:33;;;;;;;8.23;1.50;;;6.00;98.70;;;;;;5057625;28;20036;-38
2021/04/05 06:22:18;;;;;;;4.88;1.80;;;6.10;98.80;;;;;;5066738;28;20074;-39
2021/04/05 06:24:44;;;;;;;5.32;1.90;;;6.10;98.60;;;;;;5066246;28;20043;-36
2021/04/05 06:27:14;;;;;;;6.28;2.75;;;6.10;98.50;;;;;;5066997;28;20108;-36
2021/04/05 06:30:00;;;;;;;3.85;1.90;;;6.10;98.50;;;;;;5066412;28;20492;-37
2021/04/05 06:32:48;;;;;;;5.60;2.50;;;6.00;98.40;;;;;;5065563;28;20048;-39
2021/04/05 06:35:38;;;;;;;3.63;2.22;;;6.00;98.40;;;;;;5067237;28;20485;-38
2021/04/05 06:38:15;;;;;;;5.63;2.30;;;6.00;98.40;;;;;;5065861;28;20025;-37
2021/04/05 06:40:42;;;;;;;4.97;2.00;;;6.00;98.20;;;;;;5065661;28;20063;-37
2021/04/05 06:43:16;;;;;;;4.75;1.70;;;6.00;97.90;;;;;;5066062;28;20371;-38
2021/04/05 06:46:13;;;;;;;5.43;2.53;;;5.90;98.00;;;;;;5066081;28;20070;-39
2021/04/05 06:48:57;;;;;;;7.60;2.58;;;5.90;97.80;;;;;;5066174;28;20111;-39
2021/04/05 06:51:45;;;;;;;5.35;2.13;;;5.90;97.70;;;;;;5066205;28;20016;-37
2021/04/05 06:54:42;;;;;;;8.13;1.60;;;5.90;97.60;;;;;;5066367;28;20471;-37
2021/04/05 06:57:14;;;;;;;4.43;1.60;;;5.90;97.20;;;;;;5046205;28;20025;-36
2021/04/05 07:00:07;;;;;;;6.45;2.67;;;5.90;97.20;;;;;;5065120;28;20017;-36
2021/04/05 07:02:51;;;;;;;8.95;3.22;;;5.90;96.90;;;;;;5066185;28;20476;-39
2021/04/05 07:05:36;;;;;;;31.30;10.60;;;6.00;96.60;;;;;;5063512;28;20056;-38
2021/04/05 07:08:18;;;;;;;15.88;5.05;;;6.00;96.70;;;;;;5065678;28;20399;-37
2021/04/05 07:11:01;;;;;;;7.60;2.47;;;6.00;96.90;;;;;;5066153;28;20045;-38
2021/04/05 07:13:37;;;;;;;6.57;1.63;;;5.90;96.80;;;;;;5065716;28;20381;-39
2021/04/05 07:16:11;;;;;;;5.70;1.40;;;5.80;97.10;;;;;;5055192;28;20029;-40
2021/04/05 07:19:05;;;;;;;5.60;2.05;;;5.70;97.40;;;;;;5065624;28;20550;-40
2021/04/05 07:21:50;;;;;;;5.07;1.13;;;5.60;97.60;;;;;;5057144;28;20058;-38
2021/04/05 07:24:28;;;;;;;2.80;0.95;;;5.50;97.70;;;;;;5065725;28;20048;-38
2021/04/05 07:27:06;;;;;;;6.97;1.05;;;5.40;97.20;;;;;;5065145;28;20032;-37
2021/04/05 07:30:02;;;;;;;6.50;1.50;;;5.30;97.30;;;;;;5067201;28;20024;-38
2021/04/05 07:33:25;;;;;;;4.78;1.52;;;5.30;97.20;;;;;;5068536;28;20453;-38
2021/04/05 07:36:03;;;;;;;6.20;1.50;;;5.20;97.30;;;;;;5021563;28;20104;-38
2021/04/05 07:38:34;;;;;;;10.48;1.40;;;5.10;97.50;;;;;;5019246;28;20064;-37
2021/04/05 07:41:02;;;;;;;13.80;2.00;;;5.10;97.80;;;;;;5045360;28;20028;-37
2021/04/05 07:44:02;;;;;;;9.75;2.22;;;5.00;97.50;;;;;;5063779;28;20071;-38
2021/04/05 07:46:33;;;;;;;12.52;2.08;;;4.90;97.60;;;;;;5062601;28;20364;-36
2021/04/05 07:49:09;;;;;;;15.30;2.50;;;4.80;97.50;;;;;;5063954;28;20085;-39
2021/04/05 07:51:43;;;;;;;13.80;2.80;;;4.80;97.40;;;;;;5064169;28;20078;-38
2021/04/05 07:54:09;;;;;;;13.95;2.65;;;4.60;97.10;;;;;;5064374;28;20071;-38
2021/04/05 07:56:51;;;;;;;16.40;3.38;;;4.50;96.90;;;;;;5063700;28;20167;-35
2021/04/05 07:59:50;;;;;;;21.95;4.45;;;4.40;96.80;;;;;;5064132;28;20523;-37
2021/04/05 08:02:35;;;;;;;13.95;3.13;;;4.30;96.90;;;;;;5061451;28;20041;-38
2021/04/05 08:05:23;;;;;;;16.15;2.70;;;4.30;96.30;;;;;;5064585;28;20034;-36
2021/04/05 08:08:22;;;;;;;15.45;3.05;;;4.10;96.70;;;;;;5059465;28;20815;-40
2021/04/05 08:11:18;;;;;;;20.42;3.35;;;4.10;96.40;;;;;;5063887;28;20116;-37
2021/04/05 08:14:02;;;;;;;19.15;2.60;;;4.10;96.30;;;;;;5065133;28;20543;-38
2021/04/05 08:16:58;;;;;;;20.48;4.25;;;4.10;96.60;;;;;;5071801;28;20094;-37
2021/04/05 08:19:44;;;;;;;12.15;2.63;;;4.30;96.80;;;;;;5048190;28;20055;-40
2021/04/05 08:22:42;;;;;;;11.40;2.20;;;4.40;95.70;;;;;;5067451;28;20020;-37
2021/04/05 08:25:31;;;;;;;14.85;2.53;;;4.60;95.30;;;;;;5075706;28;20039;-39
2021/04/05 08:28:05;;;;;;;13.15;2.38;;;4.60;94.80;;;;;;5073729;28;20358;-36
2021/04/05 08:31:10;;;;;;;12.00;2.70;;;4.70;93.90;;;;;;5064188;28;20047;-36
2021/04/05 08:34:14;;;;;;;7.95;1.98;;;4.70;92.10;;;;;;5053649;28;20021;-35
2021/04/05 08:36:58;;;;;;;14.43;2.50;;;4.80;92.20;;;;;;5064652;28;20045;-37
2021/04/05 08:40:03;;;;;;;8.85;2.63;;;4.90;92.10;;;;;;5064715;28;20028;-41
2021/04/05 08:43:03;;;;;;;8.20;1.90;;;5.00;91.20;;;;;;5064195;28;20181;-40
2021/04/05 08:45:40;;;;;;;12.55;2.58;;;5.10;91.10;;;;;;5043986;28;20033;-38
2021/04/05 08:48:11;;;;;;;7.60;1.83;;;5.10;90.40;;;;;;5060693;28;20047;-37
2021/04/05 08:50:39;;;;;;;9.75;1.83;;;5.10;90.30;;;;;;5064770;28;20033;-37
2021/04/05 08:53:06;;;;;;;7.25;1.50;;;5.10;86.90;;;;;;5063620;28;20073;-39
2021/04/05 08:55:33;;;;;;;4.45;1.20;;;5.20;86.80;;;;;;5064065;28;20033;-35
2021/04/05 08:58:17;;;;;;;6.35;1.75;;;5.20;84.20;;;;;;5064074;28;20036;-38
2021/04/05 09:00:47;;;;;;;4.50;1.55;;;5.20;82.70;;;;;;5063658;28;20420;-41
2021/04/05 09:03:20;;;;;;;4.53;1.40;;;5.30;84.10;;;;;;5063865;28;20024;-37
2021/04/05 09:05:47;;;;;;;5.80;1.27;;;5.30;85.30;;;;;;5064357;28;20054;-37
2021/04/05 09:08:15;;;;;;;6.82;1.70;;;5.40;85.70;;;;;;5063510;28;20641;-37
2021/04/05 09:10:43;;;;;;;9.02;1.83;;;5.40;84.50;;;;;;5060688;28;20063;-38
2021/04/05 09:13:13;;;;;;;8.50;1.40;;;5.50;84.60;;;;;;5061748;28;20043;-39
2021/04/05 09:16:15;;;;;;;5.85;1.10;;;5.50;86.10;;;;;;5062807;28;20460;-38
2021/04/05 09:19:08;;;;;;;3.80;1.13;;;5.30;87.80;;;;;;5064252;28;20040;-38
2021/04/05 09:21:34;;;;;;;;;;;5.00;87.80;;;;;;5043763;28;20502;-37
2021/04/05 09:24:30;;;;;;;1.83;0.82;;;4.90;88.00;;;;;;5058556;28;19928;-38
2021/04/05 09:27:33;;;;;;;2.08;0.65;;;5.00;88.10;;;;;;5059822;28;20063;-37
2021/04/05 09:30:40;;;;;;;4.13;1.15;;;5.00;88.80;;;;;;5063523;28;20062;-37
2021/04/05 09:33:21;;;;;;;;;;;4.90;90.60;;;;;;5064397;28;20032;-38
2021/04/05 09:36:07;;;;;;;1.15;0.63;;;4.70;92.20;;;;;;5053026;28;19909;-36
2021/04/05 09:38:57;;;;;;;3.33;0.90;;;4.30;92.40;;;;;;5063960;28;20008;-38
2021/04/05 09:41:54;;;;;;;0.98;0.55;;;4.10;92.70;;;;;;5063679;28;20048;-38
2021/04/05 09:44:29;;;;;;;1.70;0.95;;;4.10;92.50;;;;;;5064079;28;20063;-38
2021/04/05 09:47:02;;;;;;;2.90;0.70;;;4.10;92.60;;;;;;5064170;28;20131;-37
2021/04/05 09:49:38;;;;;;;1.85;0.80;;;4.20;92.40;;;;;;5063225;28;20020;-37
2021/04/05 09:52:29;;;;;;;2.53;0.73;;;4.30;92.10;;;;;;5064113;28;20107;-35
2021/04/05 09:55:02;;;;;;;2.72;0.98;;;4.30;91.90;;;;;;5063397;28;20361;-38
2021/04/05 09:57:38;;;;;;;3.88;1.02;;;4.30;91.10;;;;;;5064054;28;20027;-38
2021/04/05 10:00:12;;;;;;;7.03;1.38;;;4.30;91.10;;;;;;5063976;28;20181;-38
2021/04/05 10:02:44;;;;;;;6.60;2.10;;;4.50;91.40;;;;;;5063641;28;20513;-37
2021/04/05 10:05:12;;;;;;;4.97;1.17;;;4.60;90.40;;;;;;5060749;28;20033;-41
2021/04/05 10:07:42;;;;;;;6.80;1.45;;;4.80;86.90;;;;;;5060453;28;20021;-37
2021/04/05 10:10:09;;;;;;;4.85;1.30;;;4.70;85.70;;;;;;5055730;28;20553;-36
2021/04/05 10:12:35;;;;;;;4.78;1.50;;;4.70;87.10;;;;;;5063241;28;20131;-37
2021/04/05 10:15:02;;;;;;;9.30;1.92;;;4.80;87.20;;;;;;5063366;28;20791;-37
2021/04/05 10:17:29;;;;;;;5.03;1.27;;;4.90;86.10;;;;;;5066661;28;20025;-38
2021/04/05 10:19:57;;;;;;;7.93;1.60;;;5.10;84.30;;;;;;5066407;28;20017;-40
2021/04/05 10:22:23;;;;;;;7.05;1.70;;;5.00;83.30;;;;;;5067594;28;20182;-38
2021/04/05 10:25:00;;;;;;;5.78;1.25;;;4.80;83.90;;;;;;5066973;28;20107;-37
2021/04/05 10:27:27;;;;;;;6.47;1.65;;;4.60;82.20;;;;;;5066311;28;20071;-37
2021/04/05 10:29:55;;;;;;;10.30;1.67;;;4.50;83.90;;;;;;5066407;28;20111;-38
2021/04/05 10:32:26;;;;;;;6.28;1.60;;;4.50;83.90;;;;;;5069260;28;20661;-36
2021/04/05 10:34:57;;;;;;;7.40;1.95;;;4.50;84.40;;;;;;5066563;28;20480;-36
2021/04/05 10:37:29;;;;;;;8.07;1.63;;;4.50;83.70;;;;;;5063824;28;20464;-40
2021/04/05 10:39:55;;;;;;;9.07;2.42;;;4.50;84.10;;;;;;5066287;28;20111;-38
2021/04/05 10:42:25;;;;;;;10.85;2.35;;;4.70;84.20;;;;;;5066847;28;20059;-37
2021/04/05 10:44:57;;;;;;;6.05;1.55;;;4.90;78.60;;;;;;5066802;28;20036;-40
2021/04/05 10:47:31;;;;;;;6.25;1.60;;;4.90;77.70;;;;;;5067224;28;20016;-37
2021/04/05 10:49:59;;;;;;;6.38;1.70;;;4.90;74.60;;;;;;5066754;28;20116;-37
2021/04/05 10:52:33;;;;;;;8.60;1.73;;;4.80;74.60;;;;;;5066173;28;20029;-35
2021/04/05 10:55:01;;;;;;;6.90;1.80;;;4.80;74.80;;;;;;5066710;28;20625;-36
2021/04/05 10:57:34;;;;;;;7.15;1.42;;;4.80;75.00;;;;;;5066333;28;20051;-37
2021/04/05 11:00:20;;;;;;;6.43;1.33;;;4.80;72.70;;;;;;5066815;28;20024;-39
2021/04/05 11:03:08;;;;;;;8.52;1.85;;;4.80;72.10;;;;;;5066767;28;20147;-35
2021/04/05 11:05:34;;;;;;;7.53;1.60;;;4.70;71.90;;;;;;5065813;28;20412;-38
2021/04/05 11:08:03;;;;;;;4.85;1.30;;;4.70;73.50;;;;;;5066175;28;20020;-37
2021/04/05 11:10:32;;;;;;;7.80;1.50;;;4.90;74.80;;;;;;5066361;28;20048;-40
2021/04/05 11:13:11;;;;;;;6.93;2.33;;;5.20;73.40;;;;;;5065299;28;20115;-37
2021/04/05 11:15:40;;;;;;;15.10;2.72;;;5.40;72.20;;;;;;5066147;28;20134;-38
2021/04/05 11:18:10;;;;;;;5.45;1.38;;;5.40;74.30;;;;;;5065754;28;20131;-39
2021/04/05 11:20:38;;;;;;;4.50;1.30;;;5.20;78.10;;;;;;5065793;28;20024;-38
2021/04/05 11:23:08;;;;;;;7.00;1.85;;;4.60;80.60;;;;;;5065861;28;20041;-38
2021/04/05 11:25:43;;;;;;;9.27;1.45;;;4.10;82.30;;;;;;5066049;28;20347;-39
2021/04/05 11:28:15;;;;;;;8.93;1.70;;;3.90;82.70;;;;;;5065051;28;20029;-40
2021/04/05 11:30:42;;;;;;;5.45;1.23;;;3.80;82.80;;;;;;5065874;28;20490;-36
2021/04/05 11:33:10;;;;;;;5.25;1.15;;;3.80;83.00;;;;;;5065751;28;20411;-36
2021/04/05 11:35:37;;;;;;;8.18;1.30;;;3.80;82.90;;;;;;5065839;28;20423;-37
2021/04/05 11:38:07;;;;;;;7.57;1.33;;;3.80;82.20;;;;;;5065319;28;20032;-36
2021/04/05 11:40:37;;;;;;;3.58;1.10;;;3.80;80.80;;;;;;5065333;28;20020;-38
2021/04/05 11:43:10;;;;;;;7.68;1.90;;;3.80;79.20;;;;;;5065105;28;20116;-36
2021/04/05 11:45:46;;;;;;;9.50;2.97;;;3.70;79.90;;;;;;5065016;28;20038;-38
2021/04/05 11:48:18;;;;;;;7.68;1.92;;;3.80;79.30;;;;;;5065328;28;20024;-39
2021/04/05 11:50:45;;;;;;;9.10;1.67;;;3.80;79.00;;;;;;5065741;28;20141;-39
2021/04/05 11:53:28;;;;;;;7.68;1.63;;;3.90;77.70;;;;;;5065487;28;20040;-38
2021/04/05 11:56:09;;;;;;;3.03;0.98;;;4.00;78.50;;;;;;5064911;28;20024;-40
2021/04/05 11:58:39;;;;;;;6.90;1.70;;;4.10;74.70;;;;;;5065435;28;20218;-37
2021/04/05 12:01:12;;;;;;;5.15;1.20;;;4.30;76.50;;;;;;5065109;28;20017;-38
2021/04/05 12:03:59;;;;;;;6.28;1.75;;;4.50;76.30;;;;;;5064966;28;20064;-38
2021/04/05 12:06:38;;;;;;;8.02;1.60;;;4.80;74.60;;;;;;5064974;28;20095;-35
2021/04/05 12:09:22;;;;;;;5.95;2.08;;;4.90;75.50;;;;;;5064935;28;20024;-35
2021/04/05 12:11:52;;;;;;;4.05;1.13;;;4.90;75.80;;;;;;5064543;28;20136;-35
2021/04/05 12:14:25;;;;;;;6.05;1.17;;;4.70;80.00;;;;;;5064964;28;20413;-38
2021/04/05 12:16:53;;;;;;;4.45;0.80;;;4.40;81.40;;;;;;5064959;28;20024;-39
2021/04/05 12:19:26;;;;;;;8.90;1.17;;;4.10;82.80;;;;;;5065075;28;20016;-37
2021/04/05 12:21:56;;;;;;;6.35;1.20;;;4.00;83.20;;;;;;5065185;28;20032;-36
2021/04/05 12:24:28;;;;;;;5.47;1.63;;;4.00;81.10;;;;;;5064030;28;20114;-36
2021/04/05 12:27:03;;;;;;;6.05;1.23;;;4.10;80.10;;;;;;5064495;28;20090;-35
2021/04/05 12:29:30;;;;;;;6.03;1.52;;;4.50;76.60;;;;;;5063716;28;20525;-36
2021/04/05 12:31:58;;;;;;;8.07;1.50;;;4.70;73.70;;;;;;5064380;28;20106;-33
2021/04/05 12:34:32;;;;;;;12.98;1.67;;;4.80;77.90;;;;;;5064561;28;20051;-37
2021/04/05 12:37:00;;;;;;;13.77;1.50;;;4.60;83.40;;;;;;5061243;28;20024;-34
2021/04/05 12:39:31;;;;;;;6.40;1.60;;;4.20;88.50;;;;;;5063337;28;20036;-37
2021/04/05 12:41:58;;;;;;;8.80;1.73;;;3.70;92.30;;;;;;5061217;28;20456;-38
2021/04/05 12:44:29;;;;;;;6.85;1.30;;;3.30;93.10;;;;;;5063403;28;20349;-40
2021/04/05 12:46:57;;;;;;;4.80;1.35;;;3.10;93.50;;;;;;5064274;28;20058;-38
2021/04/05 12:49:31;;;;;;;5.50;1.15;;;2.90;92.70;;;;;;5063878;28;20029;-35
2021/04/05 12:52:03;;;;;;;5.50;1.08;;;2.90;93.10;;;;;;5060854;28;20150;-38
2021/04/05 12:54:35;;;;;;;6.33;1.10;;;2.90;92.40;;;;;;5063702;28;20466;-38
2021/04/05 12:57:04;;;;;;;3.33;1.00;;;3.10;92.40;;;;;;5063561;28;20012;-39
2021/04/05 12:59:34;;;;;;;9.93;2.28;;;3.30;92.30;;;;;;5063961;28;20504;-36
2021/04/05 13:02:16;;;;;;;6.38;1.42;;;3.50;89.00;;;;;;5063603;28;20024;-36
2021/04/05 13:04:51;;;;;;;3.35;1.10;;;3.80;84.10;;;;;;5063826;28;20056;-36
2021/04/05 13:07:21;;;;;;;5.18;0.88;;;4.00;78.90;;;;;;5064479;28;20098;-37
2021/04/05 13:09:57;;;;;;;5.75;1.10;;;4.10;79.70;;;;;;5064094;28;20082;-39
2021/04/05 13:12:28;;;;;;;3.47;1.00;;;4.20;77.40;;;;;;5063370;28;20092;-37
2021/04/05 13:15:06;;;;;;;4.93;1.30;;;4.30;71.40;;;;;;5064307;28;20047;-38
2021/04/05 13:17:38;;;;;;;6.40;1.17;;;4.30;73.30;;;;;;5064123;28;20059;-39
2021/04/05 13:20:05;;;;;;;4.25;1.25;;;4.40;70.00;;;;;;5064278;28;20025;-37
2021/04/05 13:22:33;;;;;;;4.18;1.20;;;4.40;69.50;;;;;;5063935;28;20040;-33